Time;durP1;ratioP1;P1;durP2;ratioP2;P2;SDS_P1;SDS_P2;PMS_P1;PMS_P2;Temp;Humidity;BMP_temperature;BMP_pressure;BME280_temperature;BME280_humidity;BME280_pressure;Samples;Min_cycle;Max_cycle;Signal;HPM_P1;HPM_P2
2023/07/12 00:01:15;;;;;;;2.45;0.40;;;19.30;93.40;;;;;;4951155;28;20496;-80
2023/07/12 00:03:42;;;;;;;1.10;0.50;;;19.30;93.50;;;;;;4940489;29;20039;-81
2023/07/12 00:06:18;;;;;;;0.88;0.35;;;19.30;93.50;;;;;;4957762;28;20046;-81
2023/07/12 00:08:45;;;;;;;0.98;0.40;;;19.30;93.60;;;;;;4960886;28;20051;-80
2023/07/12 00:11:19;;;;;;;0.70;0.28;;;19.20;93.80;;;;;;4943306;28;20503;-80
2023/07/12 00:13:47;;;;;;;2.25;0.50;;;19.20;93.70;;;;;;4958964;28;20039;-80
2023/07/12 00:16:20;;;;;;;1.48;0.43;;;19.20;93.90;;;;;;4942739;28;20043;-80
2023/07/12 00:18:47;;;;;;;2.30;0.55;;;19.20;94.10;;;;;;4975919;28;20046;-80
2023/07/12 00:21:22;;;;;;;1.50;0.40;;;19.20;94.20;;;;;;4924671;28;20066;-80
2023/07/12 00:23:59;;;;;;;1.63;0.60;;;19.10;94.10;;;;;;4982092;28;20047;-80
2023/07/12 00:26:27;;;;;;;1.00;0.43;;;19.10;94.20;;;;;;4963864;28;20069;-80
2023/07/12 00:28:56;;;;;;;2.05;0.30;;;19.10;94.10;;;;;;4971078;28;20054;-80
2023/07/12 00:31:23;;;;;;;1.52;0.45;;;19.10;94.10;;;;;;4971012;28;20042;-80
2023/07/12 00:33:51;;;;;;;1.83;0.40;;;19.10;94.10;;;;;;4958480;28;20090;-80
2023/07/12 00:36:22;;;;;;;0.82;0.38;;;19.10;94.00;;;;;;4941235;28;20410;-80
2023/07/12 00:38:50;;;;;;;1.52;0.32;;;19.10;94.00;;;;;;4953864;28;20055;-81
2023/07/12 00:41:54;;;;;;;2.42;0.60;;;19.10;94.00;;;;;;4934462;29;20078;-80
2023/07/12 00:44:25;;;;;;;1.48;0.52;;;19.10;93.90;;;;;;4956446;28;20051;-79
2023/07/12 00:46:56;;;;;;;1.10;0.32;;;19.10;94.00;;;;;;4954438;29;20448;-80
2023/07/12 00:49:24;;;;;;;3.30;0.57;;;19.10;94.00;;;;;;4952793;29;20527;-80
2023/07/12 00:51:51;;;;;;;1.80;0.63;;;19.10;94.20;;;;;;4917933;28;20491;-80
2023/07/12 00:54:22;;;;;;;2.22;0.70;;;19.10;94.40;;;;;;4944083;28;20411;-80
2023/07/12 00:56:49;;;;;;;1.95;0.70;;;19.00;94.40;;;;;;4957956;28;20043;-79
2023/07/12 00:59:27;;;;;;;2.50;0.80;;;19.00;94.50;;;;;;4924806;28;20051;-80
2023/07/12 01:02:00;;;;;;;2.65;0.80;;;19.00;94.40;;;;;;4957502;28;20510;-80
2023/07/12 01:04:36;;;;;;;3.58;0.80;;;18.90;94.50;;;;;;4944090;28;20061;-80
2023/07/12 01:07:03;;;;;;;2.25;0.77;;;18.90;94.60;;;;;;4931886;29;20050;-80
2023/07/12 01:09:32;;;;;;;1.88;0.77;;;18.80;94.60;;;;;;4940359;28;20480;-80
2023/07/12 01:12:00;;;;;;;4.15;0.93;;;18.70;94.80;;;;;;4957409;28;20105;-80
2023/07/12 01:14:27;;;;;;;3.50;0.95;;;18.70;94.60;;;;;;4974880;28;20081;-80
2023/07/12 01:17:02;;;;;;;3.83;1.15;;;18.60;94.60;;;;;;4957518;28;20129;-81
2023/07/12 01:19:29;;;;;;;2.95;1.00;;;18.60;94.60;;;;;;4957209;28;20609;-80
2023/07/12 01:21:56;;;;;;;4.18;0.75;;;18.60;94.50;;;;;;4943877;28;20512;-80
2023/07/12 01:24:26;;;;;;;3.35;1.00;;;18.60;94.50;;;;;;4957441;28;20523;-80
2023/07/12 01:26:59;;;;;;;4.80;0.95;;;18.60;94.40;;;;;;4943644;28;20046;-80
2023/07/12 01:29:29;;;;;;;3.10;0.90;;;18.60;94.40;;;;;;4981746;28;20051;-80
2023/07/12 01:31:56;;;;;;;3.85;0.90;;;18.50;94.30;;;;;;4939127;29;20411;-80
2023/07/12 01:34:27;;;;;;;2.58;0.80;;;18.50;94.30;;;;;;4950516;28;20039;-80
2023/07/12 01:36:54;;;;;;;2.45;1.00;;;18.50;94.30;;;;;;4928738;28;20042;-80
2023/07/12 01:39:22;;;;;;;4.68;1.05;;;18.50;94.30;;;;;;4956698;28;20055;-80
2023/07/12 01:41:49;;;;;;;3.88;1.05;;;18.50;94.20;;;;;;4932746;28;20059;-80
2023/07/12 01:44:16;;;;;;;4.88;0.90;;;18.40;94.20;;;;;;4921191;29;20090;-80
2023/07/12 01:46:43;;;;;;;4.00;1.10;;;18.40;94.20;;;;;;4973590;28;20066;-80
2023/07/12 01:49:10;;;;;;;2.83;0.90;;;18.30;94.10;;;;;;4967809;28;20042;-79
2023/07/12 01:51:38;;;;;;;4.97;1.15;;;18.30;94.10;;;;;;4965062;28;20038;-80
2023/07/12 01:54:05;;;;;;;5.00;1.30;;;18.30;94.20;;;;;;4943032;28;20042;-80
2023/07/12 01:56:31;;;;;;;4.38;0.98;;;18.30;94.10;;;;;;4957756;28;20066;-80
2023/07/12 01:58:58;;;;;;;6.47;1.02;;;18.30;94.10;;;;;;4921759;29;20047;-80
2023/07/12 02:01:26;;;;;;;2.85;1.02;;;18.20;94.10;;;;;;4986704;28;20047;-80
2023/07/12 02:03:54;;;;;;;4.25;0.90;;;18.20;94.20;;;;;;4955401;28;20185;-80
2023/07/12 02:06:21;;;;;;;2.63;0.90;;;18.00;94.30;;;;;;4972414;28;20153;-80
2023/07/12 02:08:50;;;;;;;4.10;0.82;;;18.00;94.40;;;;;;4944078;28;20498;-80
2023/07/12 02:11:17;;;;;;;3.72;1.00;;;17.90;94.40;;;;;;4956962;28;20403;-80
2023/07/12 02:13:44;;;;;;;6.22;0.90;;;17.90;94.50;;;;;;4941681;29;20039;-80
2023/07/12 02:16:11;;;;;;;3.58;1.13;;;17.90;94.60;;;;;;4936302;28;20043;-80
2023/07/12 02:18:38;;;;;;;4.28;1.00;;;17.90;94.70;;;;;;4939879;28;20051;-80
2023/07/12 02:21:08;;;;;;;3.13;0.75;;;17.80;94.60;;;;;;4953741;28;20050;-80
2023/07/12 02:23:36;;;;;;;3.47;0.88;;;17.80;94.70;;;;;;4912127;28;20050;-81
2023/07/12 02:26:03;;;;;;;2.70;0.80;;;17.80;94.70;;;;;;4940583;28;20049;-80
2023/07/12 02:28:30;;;;;;;5.75;1.17;;;17.80;94.80;;;;;;4938440;29;20050;-80
2023/07/12 02:31:21;;;;;;;2.90;0.73;;;17.70;94.80;;;;;;4953138;29;20043;-81
2023/07/12 02:33:49;;;;;;;4.00;0.70;;;17.70;94.80;;;;;;4927282;28;20043;-81
2023/07/12 02:36:17;;;;;;;5.50;0.80;;;17.80;94.80;;;;;;4928290;29;20036;-80
2023/07/12 02:38:46;;;;;;;2.03;0.60;;;17.90;94.70;;;;;;4969166;28;20051;-80
2023/07/12 02:41:15;;;;;;;4.95;0.77;;;17.90;94.60;;;;;;4957560;28;20475;-83
2023/07/12 02:43:43;;;;;;;6.32;1.10;;;17.80;94.80;;;;;;4940355;28;20388;-82
2023/07/12 02:46:10;;;;;;;4.35;1.10;;;17.70;95.00;;;;;;4937482;29;20054;-82
2023/07/12 02:48:37;;;;;;;2.35;0.60;;;17.60;95.10;;;;;;4929794;29;20047;-82
2023/07/12 02:51:04;;;;;;;2.45;0.70;;;17.50;95.20;;;;;;4955773;28;20117;-82
2023/07/12 02:53:33;;;;;;;2.65;0.77;;;17.50;95.20;;;;;;4965455;28;20035;-82
2023/07/12 02:56:00;;;;;;;2.20;0.57;;;17.50;95.20;;;;;;4926986;28;20043;-82
2023/07/12 02:58:27;;;;;;;3.88;0.70;;;17.50;95.10;;;;;;4932446;29;20050;-81
2023/07/12 03:00:58;;;;;;;1.02;0.40;;;17.50;95.00;;;;;;4955917;28;20407;-80
2023/07/12 03:03:27;;;;;;;2.88;0.68;;;17.60;95.00;;;;;;4952520;29;20133;-80
2023/07/12 03:05:54;;;;;;;1.58;0.50;;;17.60;95.00;;;;;;4960219;28;20123;-80
2023/07/12 03:08:21;;;;;;;2.47;0.70;;;17.60;95.00;;;;;;4940173;29;20443;-80
2023/07/12 03:10:48;;;;;;;2.67;0.47;;;17.60;95.00;;;;;;4978957;28;20108;-80
2023/07/12 03:13:15;;;;;;;2.22;0.43;;;17.50;95.00;;;;;;4929243;28;20047;-80
2023/07/12 03:15:42;;;;;;;2.78;0.60;;;17.50;95.10;;;;;;4917422;29;20043;-80
2023/07/12 03:18:09;;;;;;;2.88;0.50;;;17.50;95.10;;;;;;4940713;29;20059;-80
2023/07/12 03:20:36;;;;;;;1.52;0.50;;;17.50;95.00;;;;;;4934375;28;20038;-80
2023/07/12 03:23:03;;;;;;;1.10;0.50;;;17.50;95.00;;;;;;4943741;28;20129;-80
2023/07/12 03:25:30;;;;;;;1.02;0.30;;;17.50;95.00;;;;;;4943755;28;20038;-80
2023/07/12 03:27:57;;;;;;;2.72;0.45;;;17.50;95.00;;;;;;4940914;28;20148;-80
2023/07/12 03:30:24;;;;;;;2.60;0.60;;;17.50;95.30;;;;;;4959468;28;20062;-80
2023/07/12 03:32:51;;;;;;;1.60;0.50;;;17.50;95.00;;;;;;4948569;28;20043;-80
2023/07/12 03:35:18;;;;;;;2.80;0.70;;;17.50;95.00;;;;;;4944637;28;20045;-80
2023/07/12 03:37:45;;;;;;;2.22;0.70;;;17.60;95.10;;;;;;4933117;29;20051;-80
2023/07/12 03:40:13;;;;;;;3.45;0.82;;;17.50;95.20;;;;;;4949638;28;20070;-80
2023/07/12 03:42:40;;;;;;;1.92;0.65;;;17.50;95.20;;;;;;4964755;28;20112;-80
2023/07/12 03:45:07;;;;;;;1.63;0.65;;;17.40;95.20;;;;;;4939795;28;20371;-80
2023/07/12 03:47:34;;;;;;;3.17;0.90;;;17.30;95.20;;;;;;4945605;28;20089;-81
2023/07/12 03:50:02;;;;;;;4.50;0.90;;;17.30;95.30;;;;;;4952902;28;20054;-81
2023/07/12 03:52:29;;;;;;;1.88;0.82;;;17.20;95.20;;;;;;4952697;28;20085;-80
2023/07/12 03:54:56;;;;;;;2.25;0.93;;;17.20;95.30;;;;;;4943230;28;20419;-81
2023/07/12 03:57:23;;;;;;;3.58;0.90;;;17.20;95.30;;;;;;4924403;28;20472;-81
2023/07/12 03:59:50;;;;;;;4.32;1.10;;;17.20;95.30;;;;;;4956204;28;20058;-81
2023/07/12 04:02:17;;;;;;;3.28;0.85;;;17.10;95.30;;;;;;4950095;28;20102;-80
2023/07/12 04:04:44;;;;;;;3.00;0.88;;;17.10;95.20;;;;;;4934702;28;20054;-80
2023/07/12 04:07:11;;;;;;;3.33;0.80;;;17.10;95.20;;;;;;4948341;29;20043;-80
2023/07/12 04:09:38;;;;;;;3.83;1.20;;;17.20;95.20;;;;;;4965612;28;20487;-80
2023/07/12 04:12:06;;;;;;;3.95;1.17;;;17.20;95.10;;;;;;4928759;28;20066;-80
2023/07/12 04:14:32;;;;;;;3.67;1.30;;;17.20;95.10;;;;;;4932593;28;20073;-80
2023/07/12 04:16:59;;;;;;;3.15;0.85;;;17.20;95.00;;;;;;4954467;28;20554;-80
2023/07/12 04:19:27;;;;;;;4.80;1.67;;;17.30;95.00;;;;;;4943056;28;20061;-80
2023/07/12 04:21:54;;;;;;;2.60;1.13;;;17.30;95.00;;;;;;4959158;28;20159;-80
2023/07/12 04:24:21;;;;;;;3.72;1.98;;;17.30;95.00;;;;;;4928822;28;20050;-80
2023/07/12 04:26:48;;;;;;;3.58;1.90;;;17.30;95.00;;;;;;4918283;28;20050;-80
2023/07/12 04:29:15;;;;;;;5.32;1.85;;;17.30;95.00;;;;;;4929960;28;20034;-80
2023/07/12 04:31:42;;;;;;;3.83;1.80;;;17.30;94.90;;;;;;4958650;28;20073;-80
2023/07/12 04:34:09;;;;;;;5.40;2.20;;;17.30;94.80;;;;;;4932070;28;20130;-80
2023/07/12 04:36:37;;;;;;;6.65;2.78;;;17.40;94.80;;;;;;4942725;28;20054;-80
2023/07/12 04:39:04;;;;;;;4.60;2.25;;;17.40;94.80;;;;;;4938999;29;20043;-80
2023/07/12 04:41:31;;;;;;;7.93;3.97;;;17.40;94.70;;;;;;4954907;29;20400;-80
2023/07/12 04:43:58;;;;;;;7.25;3.90;;;17.40;94.70;;;;;;4938471;28;20061;-80
2023/07/12 04:46:25;;;;;;;6.60;4.18;;;17.40;94.60;;;;;;4962708;28;20043;-80
2023/07/12 04:48:52;;;;;;;8.73;5.70;;;17.40;94.70;;;;;;4953707;28;20109;-81
2023/07/12 04:51:22;;;;;;;8.25;4.57;;;17.40;94.70;;;;;;4949047;28;20047;-80
2023/07/12 04:53:49;;;;;;;6.75;5.22;;;17.40;94.60;;;;;;4939071;29;20043;-81
2023/07/12 04:56:16;;;;;;;8.88;5.18;;;17.40;94.60;;;;;;4953035;29;20047;-80
2023/07/12 04:58:43;;;;;;;6.25;4.95;;;17.40;94.60;;;;;;4970347;28;20046;-80
2023/07/12 05:01:11;;;;;;;8.20;4.43;;;17.40;94.40;;;;;;4940295;29;20047;-81
2023/07/12 05:03:38;;;;;;;5.85;4.45;;;17.50;94.40;;;;;;4939154;29;20455;-83
2023/07/12 05:06:05;;;;;;;6.32;4.03;;;17.50;94.40;;;;;;4940193;28;20051;-83
2023/07/12 05:08:48;;;;;;;7.88;6.38;;;17.60;94.30;;;;;;4949826;28;20097;-83
2023/07/12 05:11:15;;;;;;;11.68;6.82;;;17.60;94.30;;;;;;4954298;28;20053;-82
2023/07/12 05:13:43;;;;;;;9.57;6.82;;;17.50;94.30;;;;;;4938586;29;20539;-82
2023/07/12 05:16:13;;;;;;;10.02;6.60;;;17.50;94.30;;;;;;4946584;28;20053;-83
2023/07/12 05:18:40;;;;;;;15.77;8.52;;;17.50;94.30;;;;;;4974636;28;20046;-83
2023/07/12 05:21:08;;;;;;;8.32;6.55;;;17.40;94.30;;;;;;4949227;28;20086;-82
2023/07/12 05:23:36;;;;;;;11.25;7.65;;;17.40;94.20;;;;;;4944854;28;20043;-83
2023/07/12 05:26:04;;;;;;;7.30;6.00;;;17.40;94.30;;;;;;4929571;29;20134;-83
2023/07/12 05:28:31;;;;;;;12.02;9.25;;;17.50;94.30;;;;;;4973639;28;20098;-83
2023/07/12 05:31:04;;;;;;;11.57;8.10;;;17.60;94.20;;;;;;4938324;29;20047;-83
2023/07/12 05:33:30;;;;;;;9.95;7.35;;;17.50;94.10;;;;;;4955404;28;20153;-83
2023/07/12 05:35:57;;;;;;;11.65;6.15;;;17.60;94.00;;;;;;4916096;29;20138;-82
2023/07/12 05:38:24;;;;;;;11.65;6.80;;;17.60;93.90;;;;;;4953659;28;20050;-82
2023/07/12 05:40:51;;;;;;;12.93;8.02;;;17.70;93.90;;;;;;4943191;28;20046;-82
2023/07/12 05:43:23;;;;;;;13.80;8.07;;;17.70;94.10;;;;;;4950943;28;20046;-82
2023/07/12 05:45:56;;;;;;;12.07;7.32;;;17.70;93.80;;;;;;4973974;28;20065;-82
2023/07/12 05:48:24;;;;;;;9.13;5.65;;;17.70;93.80;;;;;;4941691;28;20101;-82
2023/07/12 05:50:52;;;;;;;11.35;5.75;;;17.70;93.80;;;;;;4940256;28;20079;-82
2023/07/12 05:53:20;;;;;;;7.70;5.20;;;17.80;93.70;;;;;;4937974;29;20043;-82
2023/07/12 05:55:47;;;;;;;9.95;4.97;;;17.90;93.70;;;;;;4956342;28;20046;-82
2023/07/12 05:58:14;;;;;;;10.63;7.03;;;18.00;93.60;;;;;;4968035;28;20053;-82
2023/07/12 06:00:42;;;;;;;8.77;6.60;;;18.00;93.40;;;;;;4941959;28;20063;-82
2023/07/12 06:03:10;;;;;;;10.57;5.97;;;18.00;93.30;;;;;;4938232;29;20052;-82
2023/07/12 06:05:41;;;;;;;7.78;4.20;;;18.00;93.20;;;;;;4965720;28;20046;-82
2023/07/12 06:08:08;;;;;;;5.78;3.70;;;18.00;93.20;;;;;;4951547;28;20055;-82
2023/07/12 06:10:35;;;;;;;5.85;3.78;;;18.00;93.20;;;;;;4941388;29;20048;-80
2023/07/12 06:13:02;;;;;;;8.10;4.35;;;18.10;93.20;;;;;;4939885;28;20051;-80
2023/07/12 06:15:29;;;;;;;6.57;3.45;;;18.10;93.10;;;;;;4954841;28;20050;-80
2023/07/12 06:17:56;;;;;;;5.95;3.40;;;18.10;93.10;;;;;;4963693;28;20398;-80
2023/07/12 06:20:23;;;;;;;7.20;4.47;;;18.20;93.10;;;;;;4937759;29;20047;-80
2023/07/12 06:22:50;;;;;;;8.13;3.78;;;18.30;92.90;;;;;;4947626;28;20054;-80
2023/07/12 06:25:17;;;;;;;7.43;4.03;;;18.30;92.80;;;;;;4937547;29;20522;-80
2023/07/12 06:27:44;;;;;;;6.07;3.65;;;18.30;92.80;;;;;;4921629;29;20062;-80
2023/07/12 06:30:12;;;;;;;4.72;3.45;;;18.30;92.70;;;;;;4908425;29;20106;-80
2023/07/12 06:32:39;;;;;;;6.70;3.88;;;18.40;92.60;;;;;;4926551;29;20485;-80
2023/07/12 06:35:06;;;;;;;5.25;3.78;;;18.40;92.50;;;;;;4922857;28;20043;-80
2023/07/12 06:37:33;;;;;;;8.13;3.72;;;18.50;92.40;;;;;;4947745;28;20048;-80
2023/07/12 06:40:00;;;;;;;5.25;3.40;;;18.50;92.30;;;;;;4941667;29;20039;-80
2023/07/12 06:42:27;;;;;;;8.23;3.92;;;18.60;92.30;;;;;;4923624;29;20047;-81
2023/07/12 06:44:57;;;;;;;6.80;3.22;;;18.70;92.10;;;;;;4915216;28;20083;-81
2023/07/12 06:47:24;;;;;;;5.88;3.00;;;18.70;92.00;;;;;;4940879;29;20066;-80
2023/07/12 06:49:51;;;;;;;7.20;3.55;;;18.80;92.00;;;;;;4961132;28;20516;-81
2023/07/12 06:52:18;;;;;;;7.40;3.53;;;18.90;91.70;;;;;;4954837;28;20046;-81
2023/07/12 06:54:45;;;;;;;5.35;2.83;;;18.90;91.60;;;;;;4935431;28;20036;-81
2023/07/12 06:57:12;;;;;;;5.35;2.92;;;19.00;91.50;;;;;;4959729;28;20039;-81
2023/07/12 06:59:40;;;;;;;4.65;3.00;;;19.00;91.40;;;;;;4937200;29;20058;-81
2023/07/12 07:02:10;;;;;;;5.03;2.80;;;19.00;91.50;;;;;;4952935;29;20563;-81
2023/07/12 07:04:37;;;;;;;5.57;2.80;;;18.90;91.60;;;;;;4949734;28;20081;-81
2023/07/12 07:07:04;;;;;;;4.55;2.30;;;19.00;91.60;;;;;;4953352;28;20055;-81
2023/07/12 07:09:38;;;;;;;5.10;2.92;;;19.00;91.50;;;;;;4932552;29;20568;-81
2023/07/12 07:12:06;;;;;;;5.07;3.22;;;19.10;91.40;;;;;;4952940;29;20062;-81
2023/07/12 07:14:34;;;;;;;7.05;2.58;;;19.10;91.40;;;;;;4951001;28;20043;-82
2023/07/12 07:17:01;;;;;;;7.65;2.75;;;19.20;91.40;;;;;;4949891;29;20071;-82
2023/07/12 07:19:28;;;;;;;5.03;2.42;;;19.20;91.30;;;;;;4935221;29;20479;-82
2023/07/12 07:21:55;;;;;;;5.90;2.38;;;19.10;91.30;;;;;;4931704;28;20121;-82
2023/07/12 07:24:22;;;;;;;4.47;2.95;;;19.10;91.40;;;;;;4943881;29;20057;-83
2023/07/12 07:26:49;;;;;;;3.55;2.65;;;19.20;91.40;;;;;;4937169;29;20052;-83
2023/07/12 07:29:16;;;;;;;5.20;2.30;;;19.30;91.30;;;;;;4934868;28;20047;-80
2023/07/12 07:31:43;;;;;;;5.10;2.22;;;19.40;91.10;;;;;;4923788;29;20130;-82
2023/07/12 07:34:11;;;;;;;4.90;2.35;;;19.60;91.00;;;;;;4937645;29;20130;-81
2023/07/12 07:36:38;;;;;;;7.05;4.07;;;19.70;90.80;;;;;;4937139;29;20047;-81
2023/07/12 07:39:05;;;;;;;7.20;3.60;;;19.80;90.50;;;;;;4957436;28;20039;-82
2023/07/12 07:41:33;;;;;;;5.72;3.30;;;19.70;90.20;;;;;;4937926;29;20051;-82
2023/07/12 07:44:01;;;;;;;4.10;2.90;;;19.60;90.10;;;;;;4933094;28;20047;-82
2023/07/12 07:46:28;;;;;;;4.72;2.97;;;19.60;90.30;;;;;;4946950;29;20122;-82
2023/07/12 07:48:55;;;;;;;6.38;2.72;;;19.60;90.30;;;;;;4937469;29;20439;-82
2023/07/12 07:51:26;;;;;;;6.95;2.90;;;19.60;90.40;;;;;;4936792;29;20051;-84
2023/07/12 07:53:54;;;;;;;3.67;2.10;;;19.60;90.40;;;;;;4925397;29;20047;-85
2023/07/12 07:56:21;;;;;;;7.43;3.15;;;19.50;90.50;;;;;;4958358;28;20093;-82
2023/07/12 07:58:48;;;;;;;4.03;2.33;;;19.60;90.50;;;;;;4951408;28;20046;-81
2023/07/12 08:01:15;;;;;;;4.22;2.38;;;19.60;90.40;;;;;;4951287;28;20503;-82
2023/07/12 08:03:42;;;;;;;5.13;2.47;;;19.70;90.30;;;;;;4933195;29;20082;-81
2023/07/12 08:06:09;;;;;;;8.38;3.17;;;19.70;90.00;;;;;;4939225;29;20039;-81
2023/07/12 08:08:36;;;;;;;3.45;2.45;;;19.80;90.00;;;;;;4940005;29;20503;-81
2023/07/12 08:11:07;;;;;;;6.10;3.28;;;19.90;89.60;;;;;;4942448;29;20058;-82
2023/07/12 08:13:35;;;;;;;6.30;3.05;;;20.00;88.90;;;;;;4924110;29;20384;-82
2023/07/12 08:16:02;;;;;;;5.88;2.55;;;20.00;88.20;;;;;;4932340;28;20542;-81
2023/07/12 08:18:29;;;;;;;4.15;2.28;;;20.00;88.50;;;;;;4955604;29;20059;-81
2023/07/12 08:20:57;;;;;;;4.85;1.98;;;20.00;88.50;;;;;;4927790;29;20043;-82
2023/07/12 08:23:24;;;;;;;6.55;2.65;;;20.00;88.70;;;;;;4948696;28;20046;-82
2023/07/12 08:25:53;;;;;;;4.95;2.25;;;20.00;88.70;;;;;;4945129;29;20047;-81
2023/07/12 08:28:20;;;;;;;5.10;1.92;;;19.90;88.90;;;;;;4952626;29;20043;-81
2023/07/12 08:30:47;;;;;;;5.18;2.20;;;19.90;89.00;;;;;;4955264;28;20035;-81
2023/07/12 08:33:14;;;;;;;5.53;2.10;;;19.90;89.10;;;;;;4956818;28;20054;-81
2023/07/12 08:35:42;;;;;;;7.22;3.00;;;19.80;89.20;;;;;;4950839;29;20039;-80
2023/07/12 08:38:15;;;;;;;4.55;1.73;;;19.80;89.40;;;;;;4962834;28;20039;-82
2023/07/12 08:40:49;;;;;;;4.75;2.47;;;19.80;89.50;;;;;;4956374;28;20043;-81
2023/07/12 08:43:23;;;;;;;4.10;1.95;;;20.00;89.00;;;;;;4961022;28;20492;-81
2023/07/12 08:45:53;;;;;;;5.20;2.22;;;20.30;88.60;;;;;;4955185;28;20106;-81
2023/07/12 08:48:22;;;;;;;4.95;2.20;;;20.50;88.10;;;;;;4955199;29;20047;-82
2023/07/12 08:50:50;;;;;;;6.30;3.35;;;20.80;87.20;;;;;;4970784;28;20051;-82
2023/07/12 08:53:22;;;;;;;7.13;3.58;;;21.10;85.80;;;;;;4958414;28;20043;-82
2023/07/12 08:55:50;;;;;;;6.60;2.67;;;21.10;84.50;;;;;;4958329;28;20043;-81
2023/07/12 08:58:23;;;;;;;4.40;2.40;;;21.00;85.00;;;;;;4958352;28;20057;-82
2023/07/12 09:01:01;;;;;;;5.13;2.55;;;21.10;85.00;;;;;;4967315;28;20066;-82
2023/07/12 09:03:28;;;;;;;5.40;2.55;;;21.30;84.70;;;;;;4979823;28;20049;-81
2023/07/12 09:05:56;;;;;;;4.35;1.90;;;21.30;83.60;;;;;;4954781;28;20047;-81
2023/07/12 09:08:29;;;;;;;4.28;1.80;;;21.50;83.50;;;;;;4943518;28;20065;-81
2023/07/12 09:10:57;;;;;;;3.80;2.10;;;21.70;83.30;;;;;;4950179;28;20139;-81
2023/07/12 09:13:35;;;;;;;3.53;1.90;;;21.70;82.80;;;;;;4955294;29;20102;-81
2023/07/12 09:16:17;;;;;;;5.60;2.25;;;21.80;82.40;;;;;;4946492;28;20585;-80
2023/07/12 09:18:46;;;;;;;2.95;1.60;;;21.70;81.60;;;;;;4942668;28;20043;-81
2023/07/12 09:21:21;;;;;;;4.22;2.15;;;21.70;82.00;;;;;;4951485;28;20047;-82
2023/07/12 09:23:51;;;;;;;7.82;2.90;;;21.80;80.50;;;;;;4954441;29;20408;-81
2023/07/12 09:26:29;;;;;;;7.78;2.65;;;21.90;79.70;;;;;;4956610;28;20051;-81
2023/07/12 09:29:07;;;;;;;6.38;1.92;;;22.00;79.40;;;;;;4945974;28;20386;-81
2023/07/12 09:31:36;;;;;;;5.85;2.05;;;22.00;79.80;;;;;;4950227;28;20058;-80
2023/07/12 09:34:06;;;;;;;3.45;1.85;;;22.10;80.00;;;;;;4965394;28;20515;-81
2023/07/12 09:36:39;;;;;;;3.83;1.90;;;22.20;79.30;;;;;;4955160;28;20491;-81
2023/07/12 09:39:10;;;;;;;3.78;2.15;;;22.50;78.50;;;;;;4965973;28;20043;-81
2023/07/12 09:41:50;;;;;;;5.70;2.57;;;22.60;77.40;;;;;;4937976;29;20053;-83
2023/07/12 09:44:17;;;;;;;3.30;1.98;;;22.70;76.70;;;;;;4940499;29;20054;-82
2023/07/12 09:46:59;;;;;;;4.85;1.88;;;22.50;76.40;;;;;;4964049;28;20046;-83
2023/07/12 09:49:51;;;;;;;4.72;1.85;;;22.40;76.60;;;;;;4953632;28;20047;-81
2023/07/12 09:52:26;;;;;;;6.03;2.10;;;22.50;76.70;;;;;;4933212;28;20051;-81
2023/07/12 09:55:20;;;;;;;4.00;1.42;;;22.70;75.60;;;;;;4943903;28;20054;-82
2023/07/12 09:57:57;;;;;;;6.07;1.63;;;23.00;74.80;;;;;;4953200;28;20039;-82
2023/07/12 10:00:39;;;;;;;2.97;1.45;;;23.00;74.90;;;;;;4942218;28;20051;-82
2023/07/12 10:03:41;;;;;;;3.17;1.27;;;23.00;74.50;;;;;;4967298;28;20074;-81
2023/07/12 10:06:36;;;;;;;6.15;1.98;;;23.10;73.10;;;;;;4922972;29;20107;-81
2023/07/12 10:09:15;;;;;;;7.63;1.50;;;22.90;73.40;;;;;;4946105;28;20405;-82
2023/07/12 10:11:53;;;;;;;6.15;1.63;;;23.00;74.10;;;;;;4949943;29;20059;-83
2023/07/12 10:14:33;;;;;;;7.60;2.33;;;23.30;73.60;;;;;;4950606;28;20067;-82
2023/07/12 10:17:02;;;;;;;4.43;1.67;;;23.30;72.40;;;;;;4958805;28;20055;-83
2023/07/12 10:19:34;;;;;;;7.38;2.03;;;23.40;72.30;;;;;;4958554;28;20138;-83
2023/07/12 10:22:05;;;;;;;6.50;1.95;;;23.60;71.20;;;;;;4953515;29;20055;-83
2023/07/12 10:24:42;;;;;;;5.10;1.77;;;23.80;70.30;;;;;;4953738;28;20038;-82
2023/07/12 10:27:19;;;;;;;5.53;1.48;;;23.80;70.10;;;;;;4949189;29;20047;-83
2023/07/12 10:29:57;;;;;;;3.85;1.15;;;23.80;70.50;;;;;;4953546;29;20055;-84
2023/07/12 10:32:31;;;;;;;5.80;1.42;;;23.60;71.10;;;;;;4956042;28;20043;-83
2023/07/12 10:35:13;;;;;;;4.00;1.00;;;23.50;71.70;;;;;;4957507;28;20067;-82
2023/07/12 10:37:48;;;;;;;4.22;1.20;;;23.50;71.40;;;;;;4955713;28;20078;-84
2023/07/12 10:40:19;;;;;;;6.15;1.58;;;23.40;71.60;;;;;;4963629;28;20044;-82
2023/07/12 10:42:53;;;;;;;6.85;2.22;;;23.30;71.90;;;;;;4940026;29;20051;-83
2023/07/12 10:45:28;;;;;;;6.30;1.90;;;23.00;71.50;;;;;;4956709;28;20047;-82
2023/07/12 10:47:57;;;;;;;4.47;1.92;;;22.50;72.90;;;;;;4940471;29;20263;-84
2023/07/12 10:50:43;;;;;;;4.57;1.85;;;21.60;75.90;;;;;;4957234;28;20050;-86
2023/07/12 10:53:22;;;;;;;5.28;2.03;;;20.60;79.80;;;;;;4969522;28;20050;-87
2023/07/12 10:56:09;;;;;;;6.38;2.45;;;20.00;82.50;;;;;;4941829;29;20051;-87
2023/07/12 10:58:59;;;;;;;4.60;1.75;;;19.70;84.10;;;;;;4953995;29;20048;-87
2023/07/12 11:01:43;;;;;;;6.28;2.75;;;19.60;84.90;;;;;;4973843;28;20256;-92
2023/07/12 11:04:26;;;;;;;3.63;1.73;;;19.50;85.50;;;;;;4940826;29;20052;-91
2023/07/12 11:06:56;;;;;;;6.78;1.98;;;19.50;86.30;;;;;;4920002;29;20516;-86
2023/07/12 11:09:44;;;;;;;4.97;1.55;;;19.50;86.80;;;;;;4950655;28;20102;-87
2023/07/12 11:12:16;;;;;;;4.97;1.38;;;19.70;86.30;;;;;;4954700;29;20078;-88
2023/07/12 11:14:48;;;;;;;4.95;1.77;;;20.00;85.50;;;;;;4938070;29;20094;-90
2023/07/12 11:17:21;;;;;;;7.47;1.40;;;20.30;84.40;;;;;;4919990;29;20062;-85
2023/07/12 11:20:04;;;;;;;2.28;1.10;;;20.50;83.50;;;;;;4942312;28;20101;-91
2023/07/12 11:23:07;;;;;;;3.40;0.90;;;20.90;82.80;;;;;;4922985;29;20047;-88
2023/07/12 11:25:37;;;;;;;5.88;1.90;;;21.20;82.00;;;;;;4907762;29;20134;-90
2023/07/12 11:28:28;;;;;;;4.28;1.42;;;21.30;81.00;;;;;;4951941;28;20059;-90
2023/07/12 11:31:17;;;;;;;5.15;1.63;;;21.20;81.00;;;;;;4951705;28;20047;-90
2023/07/12 11:34:04;;;;;;;3.63;1.35;;;21.10;80.50;;;;;;4970811;28;20413;-91
2023/07/12 11:37:00;;;;;;;8.68;1.58;;;21.10;80.10;;;;;;4926382;29;20495;-89
2023/07/12 11:40:16;;;;;;;4.40;1.52;;;21.20;79.60;;;;;;4942759;29;20479;-87
2023/07/12 11:42:50;;;;;;;4.85;1.58;;;21.60;79.50;;;;;;4957259;29;20550;-88
2023/07/12 11:45:21;;;;;;;5.22;1.80;;;21.80;78.00;;;;;;4968041;28;20050;-86
2023/07/12 11:47:52;;;;;;;4.78;2.08;;;22.00;76.60;;;;;;4941172;28;20463;-87
2023/07/12 11:50:26;;;;;;;4.13;1.70;;;22.20;75.80;;;;;;4957709;29;20047;-86
2023/07/12 11:52:55;;;;;;;5.50;1.90;;;22.50;75.20;;;;;;4955824;29;20481;-88
2023/07/12 11:55:28;;;;;;;6.65;1.98;;;22.70;73.80;;;;;;4958251;29;20408;-87
2023/07/12 11:57:56;;;;;;;5.85;1.52;;;22.90;72.90;;;;;;4956268;29;20051;-86
2023/07/12 12:00:28;;;;;;;5.10;1.40;;;23.20;72.00;;;;;;4949789;28;20051;-85
2023/07/12 12:02:58;;;;;;;4.20;1.10;;;23.50;71.00;;;;;;4959914;28;20091;-86
2023/07/12 12:05:32;;;;;;;1.90;0.77;;;23.90;70.20;;;;;;4972302;28;20050;-90
2023/07/12 12:08:01;;;;;;;5.45;1.80;;;24.40;69.50;;;;;;4944946;28;20078;-88
2023/07/12 12:10:34;;;;;;;2.65;0.73;;;24.80;67.80;;;;;;4935687;28;20134;-88
2023/07/12 12:13:17;;;;;;;3.20;1.40;;;25.20;67.50;;;;;;4960256;28;20097;-88
2023/07/12 12:15:51;;;;;;;2.38;1.05;;;25.50;65.00;;;;;;4959626;28;20138;-89
2023/07/12 12:18:22;;;;;;;2.58;0.75;;;25.50;63.60;;;;;;4976473;28;20042;-90
2023/07/12 12:20:56;;;;;;;4.80;1.08;;;25.50;63.40;;;;;;4968583;28;20439;-90
2023/07/12 12:23:37;;;;;;;3.60;0.85;;;25.50;62.50;;;;;;4961122;28;20057;-90
2023/07/12 12:26:21;;;;;;;3.20;0.70;;;25.20;63.70;;;;;;4941587;29;20055;-93
2023/07/12 12:28:57;;;;;;;2.35;0.75;;;25.50;62.90;;;;;;4960845;28;20444;-92
2023/07/12 12:31:29;;;;;;;3.17;1.17;;;25.80;61.90;;;;;;4959404;28;20081;-90
2023/07/12 12:34:15;;;;;;;5.63;0.70;;;26.20;61.80;;;;;;4977258;28;20050;-90
2023/07/12 12:37:01;;;;;;;2.83;0.80;;;26.60;61.20;;;;;;4977239;28;20069;-82
2023/07/12 12:39:28;;;;;;;2.55;0.57;;;27.20;60.80;;;;;;4951842;28;20058;-86
2023/07/12 12:42:15;;;;;;;2.38;0.65;;;27.60;60.40;;;;;;4944169;28;20051;-82
2023/07/12 12:44:42;;;;;;;2.78;0.75;;;27.70;58.00;;;;;;4959016;28;20046;-81
2023/07/12 12:47:17;;;;;;;5.03;0.98;;;27.60;58.30;;;;;;4947428;28;20054;-85
2023/07/12 12:49:48;;;;;;;2.05;0.60;;;27.70;56.90;;;;;;4962209;28;20047;-82
2023/07/12 12:52:25;;;;;;;2.90;0.70;;;27.80;56.90;;;;;;4976831;28;20435;-83
2023/07/12 12:55:08;;;;;;;2.45;0.60;;;27.70;56.30;;;;;;4965221;28;20197;-82
2023/07/12 12:57:44;;;;;;;5.65;1.10;;;27.40;56.50;;;;;;4964580;28;20082;-82
2023/07/12 13:00:20;;;;;;;4.38;0.90;;;27.20;56.00;;;;;;4928647;28;20046;-80
2023/07/12 13:02:53;;;;;;;3.30;1.00;;;27.30;55.30;;;;;;4946372;28;20057;-81
2023/07/12 13:05:27;;;;;;;2.58;0.68;;;27.60;55.20;;;;;;4949775;28;20062;-81